Time;durP1;ratioP1;P1;durP2;ratioP2;P2;SDS_P1;SDS_P2;PMS_P1;PMS_P2;Temp;Humidity;BMP_temperature;BMP_pressure;BME280_temperature;BME280_humidity;BME280_pressure;Samples;Min_cycle;Max_cycle;Signal;HPM_P1;HPM_P2
2022/03/03 00:00:26;;;;;;;;;31.00;26.50;;;;;5.62;54.87;101092.06;146608;584;46008;-72
2022/03/03 00:03:18;;;;;;;;;22.00;19.50;;;;;5.58;54.04;101084.91;146610;578;46010;-72
2022/03/03 00:06:10;;;;;;;;;28.75;28.75;;;;;5.55;55.53;101085.56;146615;575;46020;-72
2022/03/03 00:09:03;;;;;;;;;29.50;24.75;;;;;5.50;55.23;101080.84;146609;588;46011;-74
2022/03/03 00:11:55;;;;;;;;;29.00;25.00;;;;;5.44;55.32;101080.38;146613;586;47008;-73
2022/03/03 00:14:47;;;;;;;;;26.75;25.25;;;;;5.34;55.79;101081.34;146612;620;46912;-71
2022/03/03 00:17:39;;;;;;;;;34.25;26.25;;;;;5.29;56.27;101086.09;146614;566;47008;-73
2022/03/03 00:20:31;;;;;;;;;29.50;26.00;;;;;5.24;56.57;101090.00;146607;619;47010;-73
2022/03/03 00:23:23;;;;;;;;;26.25;23.50;;;;;5.22;55.53;101086.41;146618;564;46008;-76
2022/03/03 00:26:15;;;;;;;;;22.00;22.00;;;;;5.19;55.37;101093.00;146610;628;46012;-79
2022/03/03 00:29:09;;;;;;;;;32.00;25.25;;;;;5.17;56.00;101090.31;146611;659;46020;-73
2022/03/03 00:32:01;;;;;;;;;26.00;22.00;;;;;5.17;55.90;101097.09;146609;702;47017;-72
2022/03/03 00:34:53;;;;;;;;;30.00;24.50;;;;;5.15;56.32;101096.09;146618;589;46020;-72
2022/03/03 00:37:46;;;;;;;;;18.00;14.50;;;;;5.10;55.75;101088.03;146610;581;46022;-71
2022/03/03 00:40:37;;;;;;;;;23.25;17.25;;;;;5.07;56.17;101088.66;146615;584;46008;-75
2022/03/03 00:43:30;;;;;;;;;21.75;20.50;;;;;5.07;56.39;101085.22;146611;803;46016;-82
2022/03/03 00:46:25;;;;;;;;;25.75;23.50;;;;;5.03;56.42;101081.50;146615;631;46021;-81
2022/03/03 00:49:17;;;;;;;;;28.00;25.25;;;;;5.02;56.17;101087.44;146613;607;46016;-81
2022/03/03 00:52:09;;;;;;;;;21.50;19.50;;;;;5.01;56.17;101088.19;146615;732;46020;-80
2022/03/03 00:55:01;;;;;;;;;24.50;21.00;;;;;5.00;56.20;101091.53;146613;610;46016;-81
2022/03/03 00:57:53;;;;;;;;;25.75;23.50;;;;;5.00;56.50;101091.53;146608;612;47008;-80
2022/03/03 01:00:45;;;;;;;;;23.50;21.00;;;;;5.03;56.39;101085.75;146606;627;47010;-84
2022/03/03 01:03:37;;;;;;;;;25.50;23.50;;;;;5.12;56.78;101088.16;146612;571;47008;-85
2022/03/03 01:06:30;;;;;;;;;25.75;20.50;;;;;5.18;56.35;101091.22;146604;605;47912;-86
2022/03/03 01:09:21;;;;;;;;;28.75;25.75;;;;;5.22;56.25;101094.13;146614;569;47008;-85
2022/03/03 01:12:14;;;;;;;;;30.25;29.00;;;;;5.23;55.75;101089.88;146610;563;47010;-70
2022/03/03 01:15:08;;;;;;;;;29.75;26.75;;;;;5.21;56.43;101087.19;146612;583;47009;-74
2022/03/03 01:18:01;;;;;;;;;27.00;24.50;;;;;5.18;56.65;101086.97;146612;625;46016;-71
2022/03/03 01:20:54;;;;;;;;;29.50;24.25;;;;;5.16;57.25;101082.47;146617;641;45021;-72
2022/03/03 01:23:46;;;;;;;;;27.25;24.75;;;;;5.14;56.98;101081.44;146611;594;46016;-76
2022/03/03 01:26:38;;;;;;;;;30.25;25.75;;;;;5.10;57.00;101070.91;146608;787;46008;-75
2022/03/03 01:29:31;;;;;;;;;27.00;24.00;;;;;5.06;57.21;101068.91;146612;692;46016;-76
2022/03/03 01:32:23;;;;;;;;;29.75;24.50;;;;;5.04;57.09;101067.87;146617;564;46008;-75
2022/03/03 01:35:15;;;;;;;;;27.25;23.00;;;;;5.04;57.84;101066.97;146609;801;47010;-75
2022/03/03 01:38:07;;;;;;;;;27.50;24.00;;;;;5.05;57.40;101079.06;146614;571;46008;-75
2022/03/03 01:40:59;;;;;;;;;36.00;30.25;;;;;5.04;57.73;101069.53;146610;571;46010;-78
2022/03/03 01:43:51;;;;;;;;;28.50;24.75;;;;;4.98;57.48;101062.25;146613;573;46009;-79
2022/03/03 01:47:02;;;;;;;;;27.00;26.25;;;;;4.93;58.20;101067.81;146609;581;47010;-81
2022/03/03 01:49:55;;;;;;;;;25.50;20.50;;;;;4.88;58.98;101070.00;146615;603;46008;-73
2022/03/03 01:52:47;;;;;;;;;36.25;29.00;;;;;4.86;59.16;101063.87;146608;564;46017;-72
2022/03/03 01:55:39;;;;;;;;;26.75;24.25;;;;;4.86;58.96;101066.44;146609;615;47008;-73
2022/03/03 01:58:31;;;;;;;;;28.25;25.50;;;;;4.84;58.63;101063.75;146612;594;46912;-71
2022/03/03 02:01:23;;;;;;;;;30.00;27.00;;;;;3.75;58.47;100863.31;146613;591;47008;-73
2022/03/03 02:04:15;;;;;;;;;33.50;29.50;;;;;3.74;58.08;100862.41;146608;575;47010;-73
2022/03/03 02:07:08;;;;;;;;;32.00;26.50;;;;;4.81;59.15;101054.91;146617;575;46021;-73
2022/03/03 02:10:00;;;;;;;;;35.25;30.50;;;;;4.78;58.92;101050.41;146611;624;46016;-75
2022/03/03 02:12:52;;;;;;;;;27.50;27.25;;;;;4.77;59.01;101055.44;146617;619;46020;-75
2022/03/03 02:15:51;;;;;;;;;32.75;28.00;;;;;4.73;59.71;101051.69;146610;579;46030;-76
2022/03/03 02:18:47;;;;;;;;;32.50;29.75;;;;;4.71;58.57;101060.09;146616;571;46020;-77
2022/03/03 02:21:39;;;;;;;;;37.25;34.50;;;;;4.70;59.31;101061.72;146608;574;47010;-82
2022/03/03 02:24:31;;;;;;;;;41.25;32.75;;;;;4.67;59.12;101048.62;146609;677;46020;-83
2022/03/03 02:27:25;;;;;;;;;19.75;18.00;;;;;3.69;58.91;100890.25;146609;586;46010;-77
2022/03/03 02:30:19;;;;;;;;;30.50;26.75;;;;;4.67;59.07;101052.88;146612;578;47918;-79
2022/03/03 02:33:11;;;;;;;;;29.00;24.50;;;;;4.68;59.12;101053.03;146607;564;47010;-79
2022/03/03 02:36:27;;;;;;;;;53.25;39.50;;;;;4.70;59.30;101050.56;146614;584;46008;-69
2022/03/03 02:39:19;;;;;;;;;37.00;29.50;;;;;4.71;58.90;101049.81;146619;582;45911;-73
2022/03/03 02:42:11;;;;;;;;;26.25;23.00;;;;;4.67;59.90;101051.22;146623;571;45020;-70
2022/03/03 02:45:04;;;;;;;;;39.00;31.75;;;;;4.61;59.58;101048.16;146619;582;46010;-83
2022/03/03 02:47:56;;;;;;;;;42.75;33.50;;;;;4.55;59.47;101046.03;146623;580;46020;-83
2022/03/03 02:50:48;;;;;;;;;38.00;35.00;;;;;4.50;60.13;101047.31;146620;596;46011;-82
2022/03/03 02:53:40;;;;;;;;;22.50;19.75;;;;;4.48;60.24;101056.53;146617;647;45020;-84
2022/03/03 02:57:53;;;;;;;;;34.25;28.75;;;;;4.41;59.91;101038.88;146619;673;46016;-82
2022/03/03 02:59:44;;;;;;;;;34.75;26.25;;;;;4.35;60.26;101041.81;146622;601;46008;-82
2022/03/03 03:02:37;;;;;;;;;32.75;25.00;;;;;4.32;60.30;101044.16;146618;581;46010;-82
2022/03/03 03:05:29;;;;;;;;;29.00;23.00;;;;;4.27;60.11;101039.41;146623;591;46008;-82
2022/03/03 03:08:21;;;;;;;;;26.00;24.50;;;;;4.20;60.29;101040.56;146619;583;45912;-82
2022/03/03 03:11:13;;;;;;;;;27.75;25.00;;;;;4.14;60.01;101045.22;146622;568;46020;-78
2022/03/03 03:14:06;;;;;;;;;31.50;28.50;;;;;4.10;59.92;101049.19;146618;584;46011;-73
2022/03/03 03:16:58;;;;;;;;;31.50;23.75;;;;;4.05;60.61;101053.09;146622;613;46008;-73
2022/03/03 03:19:50;;;;;;;;;28.25;26.75;;;;;4.04;61.07;101061.53;146618;589;46016;-70
2022/03/03 03:22:42;;;;;;;;;29.50;24.50;;;;;4.06;60.59;101059.09;146620;570;46020;-71
2022/03/03 03:25:37;;;;;;;;;28.50;21.75;;;;;4.10;60.82;101058.56;146620;669;46010;-68
2022/03/03 03:28:29;;;;;;;;;26.25;25.50;;;;;4.14;60.48;101068.31;146622;573;46008;-68
2022/03/03 03:31:21;;;;;;;;;29.00;25.00;;;;;4.13;60.51;101062.28;146615;645;46016;-75
2022/03/03 03:34:13;;;;;;;;;24.50;24.50;;;;;4.10;60.64;101056.91;146622;644;46020;-74
2022/03/03 03:37:06;;;;;;;;;33.50;29.50;;;;;4.10;60.74;101059.47;146615;570;46912;-74
2022/03/03 03:39:58;;;;;;;;;33.25;26.25;;;;;4.08;60.73;101058.47;146617;572;46020;-74
2022/03/03 03:42:51;;;;;;;;;24.00;21.50;;;;;4.04;60.46;101048.69;146608;708;46912;-73
2022/03/03 03:45:43;;;;;;;;;36.25;29.75;;;;;4.01;60.86;101063.84;146616;574;46008;-73
2022/03/03 03:48:36;;;;;;;;;31.00;29.00;;;;;3.97;60.68;101059.25;146612;590;46016;-77
2022/03/03 03:51:28;;;;;;;;;31.00;29.00;;;;;3.94;60.34;101052.19;146609;592;46008;-72
2022/03/03 03:54:20;;;;;;;;;26.50;21.25;;;;;3.88;60.15;101053.34;146611;621;46912;-71
2022/03/03 03:57:12;;;;;;;;;27.50;25.50;;;;;3.87;60.25;101056.69;146617;634;46021;-76
2022/03/03 04:00:06;;;;;;;;;25.00;21.00;;;;;3.86;59.99;101053.22;146611;644;46016;-75
2022/03/03 04:02:59;;;;;;;;;25.75;24.25;;;;;3.85;59.87;101045.41;146617;694;46020;-75
2022/03/03 04:05:51;;;;;;;;;21.25;20.00;;;;;3.87;60.41;101054.13;146608;591;47010;-76
2022/03/03 04:08:43;;;;;;;;;28.75;21.25;;;;;3.89;60.27;101060.25;146609;574;46020;-75
2022/03/03 04:11:36;;;;;;;;;23.25;22.25;;;;;3.93;59.97;101057.19;146612;620;46017;-81
2022/03/03 04:14:28;;;;;;;;;26.25;24.75;;;;;3.96;59.85;101057.44;146617;613;46020;-71
2022/03/03 04:17:20;;;;;;;;;24.75;21.50;;;;;3.99;60.03;101062.84;146614;647;45911;-75
2022/03/03 04:20:13;;;;;;;;;27.25;24.00;;;;;3.99;59.94;101057.72;146610;779;46021;-75
2022/03/03 04:23:05;;;;;;;;;27.75;24.00;;;;;4.02;59.89;101067.28;146611;588;46016;-76
2022/03/03 04:25:57;;;;;;;;;32.50;26.25;;;;;4.01;60.34;101055.25;146615;581;46008;-77
2022/03/03 04:28:50;;;;;;;;;32.00;27.50;;;;;3.96;60.79;101061.66;146610;617;46872;-76
2022/03/03 04:31:42;;;;;;;;;25.00;23.25;;;;;3.91;60.83;101059.63;146613;771;47008;-78
2022/03/03 04:34:34;;;;;;;;;29.25;25.00;;;;;3.88;61.00;101058.47;146611;597;46016;-78
2022/03/03 04:37:26;;;;;;;;;26.75;23.75;;;;;3.82;60.74;101056.28;146616;598;46020;-74
2022/03/03 04:40:18;;;;;;;;;39.75;29.50;;;;;3.78;61.46;101066.19;146610;699;47010;-74
2022/03/03 04:43:11;;;;;;;;;40.75;34.25;;;;;3.74;61.34;101075.28;146615;595;47021;-74
2022/03/03 04:46:03;;;;;;;;;41.00;34.50;;;;;3.69;61.59;101069.75;146611;681;46010;-79
2022/03/03 04:48:59;;;;;;;;;38.75;34.75;;;;;3.64;61.73;101067.56;146609;586;46008;-79
2022/03/03 04:51:51;;;;;;;;;28.75;25.50;;;;;3.65;61.58;101083.09;146607;574;47012;-78
2022/03/03 04:54:44;;;;;;;;;27.25;23.75;;;;;3.66;61.54;101091.69;146616;569;47020;-82
2022/03/03 04:57:37;;;;;;;;;30.00;25.50;;;;;3.62;61.30;101090.53;146611;615;46030;-80
2022/03/03 05:00:29;;;;;;;;;29.00;27.00;;;;;3.63;61.76;101091.44;146615;575;46020;-75
2022/03/03 05:03:22;;;;;;;;;34.50;31.25;;;;;3.60;61.22;101094.63;146609;609;47010;-73
2022/03/03 05:06:14;;;;;;;;;32.75;26.25;;;;;3.60;61.76;101086.94;146615;586;46008;-70
2022/03/03 05:09:06;;;;;;;;;44.25;32.75;;;;;3.55;61.59;101084.75;146614;569;46016;-70
2022/03/03 05:11:59;;;;;;;;;42.25;34.00;;;;;3.56;61.72;101072.06;146617;597;46029;-76
2022/03/03 05:14:51;;;;;;;;;33.00;28.50;;;;;3.58;61.56;101082.44;146611;613;46010;-76
2022/03/03 05:17:43;;;;;;;;;25.50;24.25;;;;;3.58;61.50;101090.13;146609;576;46020;-76
2022/03/03 05:20:35;;;;;;;;;39.25;34.00;;;;;3.61;61.69;101090.41;146610;665;46016;-77
2022/03/03 05:23:28;;;;;;;;;39.00;32.75;;;;;3.64;61.78;101091.53;146615;569;46008;-86
2022/03/03 05:26:20;;;;;;;;;34.75;29.50;;;;;3.69;61.66;101097.97;146609;636;47011;-73
2022/03/03 05:29:12;;;;;;;;;38.25;31.00;;;;;3.75;61.28;101099.28;146617;601;46008;-73
2022/03/03 05:32:04;;;;;;;;;35.50;29.75;;;;;4.05;60.97;101098.34;146611;576;46016;-74
2022/03/03 05:34:56;;;;;;;;;30.75;25.00;;;;;4.72;59.81;101106.44;146615;746;46008;-73
2022/03/03 05:37:50;;;;;;;;;30.75;27.25;;;;;5.37;57.38;101102.16;146610;624;47010;-73
2022/03/03 05:40:42;;;;;;;;;30.50;27.00;;;;;5.93;56.74;101109.88;146618;767;46008;-71
2022/03/03 05:43:36;;;;;;;;;30.00;25.25;;;;;6.48;55.79;101108.88;146613;611;46016;-72
2022/03/03 05:46:28;;;;;;;;;31.50;28.50;;;;;6.97;53.23;101103.78;146609;586;46008;-72
2022/03/03 05:49:22;;;;;;;;;29.75;27.25;;;;;7.32;52.15;101114.94;146610;615;46016;-72
2022/03/03 05:52:14;;;;;;;;;30.25;23.75;;;;;7.67;51.21;101115.59;146619;587;46020;-70
2022/03/03 05:55:08;;;;;;;;;33.25;30.50;;;;;8.01;51.18;101123.94;146609;577;47010;-69
2022/03/03 05:58:03;;;;;;;;;31.00;28.25;;;;;8.47;49.88;101124.44;146617;571;45029;-68
2022/03/03 06:01:01;;;;;;;;;31.50;28.50;;;;;8.78;48.91;101125.69;146610;611;46016;-67
2022/03/03 06:03:53;;;;;;;;;31.00;26.50;;;;;8.86;46.93;101135.59;146616;571;46021;-69
2022/03/03 06:07:05;;;;;;;;;33.00;29.50;;;;;8.82;47.70;101154.31;146615;596;47010;-69
2022/03/03 06:10:00;;;;;;;;;33.00;28.75;;;;;8.69;47.91;101144.84;146616;619;46021;-70
2022/03/03 06:12:54;;;;;;;;;41.25;33.00;;;;;8.69;47.65;101150.94;146610;569;46010;-70
2022/03/03 06:15:47;;;;;;;;;43.50;35.75;;;;;8.71;47.96;101156.19;146611;574;46008;-71
2022/03/03 06:18:40;;;;;;;;;43.75;36.50;;;;;8.61;47.06;101146.94;146610;626;46017;-71
2022/03/03 06:21:32;;;;;;;;;41.25;33.75;;;;;8.39;47.51;101146.31;146613;569;46020;-71
2022/03/03 06:24:25;;;;;;;;;34.25;28.00;;;;;8.19;47.56;101148.41;146611;613;46016;-72
2022/03/03 06:27:17;;;;;;;;;36.75;32.75;;;;;8.02;48.98;101144.69;146617;592;46020;-72
2022/03/03 06:30:11;;;;;;;;;34.00;29.00;;;;;7.89;48.17;101156.69;146607;615;47010;-72
2022/03/03 06:33:03;;;;;;;;;29.75;29.75;;;;;7.73;47.99;101163.38;146618;579;46021;-77
2022/03/03 06:35:56;;;;;;;;;36.75;31.75;;;;;7.67;49.19;101162.03;146611;575;47012;-75
2022/03/03 06:38:48;;;;;;;;;33.75;32.25;;;;;7.58;49.22;101165.75;146616;639;46020;-75
2022/03/03 06:41:40;;;;;;;;;33.00;29.50;;;;;7.57;49.61;101175.97;146610;581;46016;-76
2022/03/03 06:44:32;;;;;;;;;35.50;32.25;;;;;7.62;49.38;101172.91;146610;592;46008;-77
2022/03/03 06:47:25;;;;;;;;;31.50;29.75;;;;;7.76;50.16;101168.75;146612;571;46016;-76
2022/03/03 06:50:17;;;;;;;;;33.50;29.25;;;;;7.90;48.43;101176.53;146617;569;46020;-69
2022/03/03 06:53:10;;;;;;;;;36.25;32.00;;;;;7.98;49.41;101178.84;146609;580;46016;-70
2022/03/03 06:56:12;;;;;;;;;34.00;32.00;;;;;8.13;49.44;101181.59;146618;592;46020;-70
2022/03/03 06:59:05;;;;;;;;;40.75;32.25;;;;;8.25;48.84;101181.50;146612;609;46016;-70
2022/03/03 07:01:59;;;;;;;;;39.00;32.00;;;;;8.37;48.42;101196.97;146615;592;47012;-70
2022/03/03 07:04:54;;;;;;;;;45.00;34.75;;;;;8.44;48.82;101199.19;146610;648;46012;-71
2022/03/03 07:07:47;;;;;;;;;32.75;28.25;;;;;8.54;48.14;101199.94;146617;566;46008;-70
2022/03/03 07:10:41;;;;;;;;;29.25;26.25;;;;;8.65;47.87;101198.03;146610;580;47012;-73
2022/03/03 07:13:34;;;;;;;;;30.50;27.75;;;;;8.81;47.13;101193.88;146612;572;46020;-71
2022/03/03 07:16:49;;;;;;;;;39.75;33.25;;;;;8.90;48.69;101202.25;146611;621;46017;-69
2022/03/03 07:20:07;;;;;;;;;36.25;33.00;;;;;9.08;48.78;101208.62;146614;605;46020;-69
2022/03/03 07:23:09;;;;;;;;;40.50;31.25;;;;;9.15;47.88;101199.56;146610;589;46010;-73
2022/03/03 07:26:04;;;;;;;;;33.00;29.25;;;;;9.17;46.65;101193.69;146618;591;46020;-69
2022/03/03 07:28:58;;;;;;;;;33.00;30.00;;;;;9.33;47.31;101205.03;146612;602;46010;-72
2022/03/03 07:32:01;;;;;;;;;31.50;28.75;;;;;9.51;48.76;101197.53;146615;569;46021;-72
2022/03/03 07:35:02;;;;;;;;;31.25;30.25;;;;;9.70;46.13;101200.47;146607;583;47911;-74
2022/03/03 07:38:04;;;;;;;;;24.00;20.25;;;;;9.90;47.33;101206.87;146616;622;46020;-74
2022/03/03 07:40:57;;;;;;;;;28.25;25.00;;;;;10.08;45.74;101208.00;146610;570;46016;-73
2022/03/03 07:43:49;;;;;;;;;29.00;25.00;;;;;10.23;44.83;101201.97;146608;693;47008;-73
2022/03/03 07:46:42;;;;;;;;;34.25;28.75;;;;;10.36;45.41;101208.00;146610;620;47010;-73
2022/03/03 07:49:34;;;;;;;;;29.25;26.75;;;;;10.46;44.54;101209.44;146615;615;46008;-74
2022/03/03 07:52:28;;;;;;;;;25.75;23.50;;;;;10.54;44.85;101199.53;146612;577;46016;-74
2022/03/03 07:55:21;;;;;;;;;28.50;28.00;;;;;10.63;43.61;101202.66;146608;570;47008;-74
2022/03/03 07:58:24;;;;;;;;;27.25;25.50;;;;;10.68;43.48;101203.81;146611;565;46016;-74
2022/03/03 08:01:19;;;;;;;;;31.50;27.50;;;;;10.73;43.04;101198.91;146614;700;46009;-74
2022/03/03 08:04:14;;;;;;;;;31.75;28.50;;;;;10.77;43.41;101211.22;146612;691;46012;-74
2022/03/03 08:07:13;;;;;;;;;29.50;26.25;;;;;10.85;44.46;101210.00;146613;646;47008;-73
2022/03/03 08:10:06;;;;;;;;;26.25;23.75;;;;;11.01;43.49;101209.16;146611;625;47010;-74
2022/03/03 08:13:00;;;;;;;;;27.25;22.50;;;;;11.11;44.03;101214.06;146609;563;46020;-74
2022/03/03 08:15:52;;;;;;;;;29.25;26.25;;;;;11.23;42.24;101217.34;146614;611;45912;-74
2022/03/03 08:18:44;;;;;;;;;31.00;27.25;;;;;11.38;44.44;101224.22;146616;628;46008;-75
2022/03/03 08:21:37;;;;;;;;;32.50;29.50;;;;;11.55;43.33;101220.84;146609;571;47010;-74
2022/03/03 08:24:30;;;;;;;;;26.50;25.00;;;;;11.70;43.03;101218.19;146618;672;46020;-74
2022/03/03 08:27:25;;;;;;;;;30.50;27.00;;;;;11.83;44.23;101215.44;146610;604;46016;-74
2022/03/03 08:30:17;;;;;;;;;29.50;24.25;;;;;12.07;43.02;101209.81;146617;598;46008;-75
2022/03/03 08:33:21;;;;;;;;;26.75;25.00;;;;;12.23;43.46;101207.19;146615;573;46010;-75
2022/03/03 08:36:28;;;;;;;;;22.50;19.25;;;;;12.33;42.99;101203.37;146613;702;47008;-75
2022/03/03 08:39:28;;;;;;;;;25.25;23.75;;;;;12.23;40.10;101204.59;146619;565;46010;-75
2022/03/03 08:42:27;;;;;;;;;22.25;20.75;;;;;12.20;39.64;101202.72;146616;582;46020;-74
2022/03/03 08:45:23;;;;;;;;;25.75;25.50;;;;;12.27;41.51;101198.72;146621;575;45911;-75
2022/03/03 08:48:16;;;;;;;;;26.00;22.50;;;;;12.43;41.45;101200.44;146622;558;45020;-75
2022/03/03 08:51:08;;;;;;;;;31.00;25.50;;;;;12.57;41.34;101190.72;146619;642;45911;-74
2022/03/03 08:54:01;;;;;;;;;28.00;25.75;;;;;12.66;41.52;101186.88;146620;589;46008;-74
2022/03/03 08:56:53;;;;;;;;;39.00;29.75;;;;;12.74;40.24;101179.47;146618;601;45016;-75
2022/03/03 08:59:45;;;;;;;;;27.50;25.50;;;;;12.66;40.16;101181.69;146623;668;46020;-75
2022/03/03 09:02:40;;;;;;;;;26.00;23.75;;;;;12.62;41.12;101176.25;146617;606;46911;-74
2022/03/03 09:05:32;;;;;;;;;20.75;20.25;;;;;12.57;38.00;101169.91;146623;564;45020;-73
2022/03/03 09:08:24;;;;;;;;;23.00;21.75;;;;;12.55;40.32;101175.03;146620;577;46010;-73
2022/03/03 09:11:18;;;;;;;;;21.50;18.50;;;;;12.57;38.35;101169.91;146617;610;45020;-73
2022/03/03 09:14:11;;;;;;;;;21.25;20.00;;;;;12.55;37.91;101171.53;146620;607;45016;-74
2022/03/03 09:17:03;;;;;;;;;22.50;21.25;;;;;12.57;38.14;101173.41;146621;566;46030;-73
2022/03/03 09:19:55;;;;;;;;;21.75;18.50;;;;;12.68;38.69;101173.97;146617;605;46016;-73
2022/03/03 09:22:49;;;;;;;;;22.25;19.25;;;;;12.78;39.54;101172.72;146620;564;46020;-73
2022/03/03 09:25:41;;;;;;;;;21.50;20.25;;;;;12.87;39.26;101162.75;146620;795;46010;-74
2022/03/03 09:28:33;;;;;;;;;32.00;29.50;;;;;12.99;41.32;101167.62;146623;627;45020;-74
2022/03/03 09:31:25;;;;;;;;;17.50;17.00;;;;;13.21;39.38;101167.88;146621;639;46010;-75
2022/03/03 09:34:17;;;;;;;;;27.75;26.00;;;;;13.45;40.72;101173.34;146619;566;46020;-73
2022/03/03 09:37:09;;;;;;;;;29.00;27.00;;;;;13.67;40.39;101164.81;146617;603;46013;-73
2022/03/03 09:40:01;;;;;;;;;27.00;24.25;;;;;13.88;39.75;101167.50;146609;636;46020;-75
2022/03/03 09:43:07;;;;;;;;;30.75;27.75;;;;;14.07;40.66;101171.81;146612;589;46010;-70
2022/03/03 09:45:59;;;;;;;;;29.75;25.75;;;;;14.21;40.17;101164.62;146611;638;46008;-74
2022/03/03 09:48:52;;;;;;;;;23.50;23.25;;;;;13.38;38.36;101004.59;146611;604;46016;-85
2022/03/03 09:51:43;;;;;;;;;24.75;21.00;;;;;14.32;39.36;101168.56;146614;599;46008;-74
2022/03/03 09:54:36;;;;;;;;;23.75;21.25;;;;;14.39;38.87;101169.72;146610;593;47012;-77
2022/03/03 09:57:28;;;;;;;;;20.75;19.75;;;;;14.52;37.55;101162.53;146617;613;46020;-77
2022/03/03 10:00:21;;;;;;;;;38.00;32.75;;;;;14.61;39.18;101143.75;146610;626;46017;-77
2022/03/03 10:03:21;;;;;;;;;21.00;20.75;;;;;14.76;37.69;101146.09;146617;621;46008;-77
2022/03/03 10:06:16;;;;;;;;;17.75;17.50;;;;;14.87;38.16;101144.81;146608;588;46010;-78
2022/03/03 10:09:08;;;;;;;;;31.50;28.00;;;;;14.95;37.11;101146.03;146608;564;47008;-77
2022/03/03 10:12:09;;;;;;;;;30.00;27.50;;;;;15.06;40.96;101149.06;146610;682;47010;-78
2022/03/03 10:15:02;;;;;;;;;24.50;21.75;;;;;15.21;36.86;101138.31;146615;564;46021;-78
2022/03/03 10:18:03;;;;;;;;;28.75;27.00;;;;;15.38;38.48;101138.97;146607;599;47010;-79
2022/03/03 10:21:02;;;;;;;;;25.50;24.00;;;;;15.42;36.45;101136.53;146613;591;47008;-78
2022/03/03 10:23:54;;;;;;;;;27.00;24.75;;;;;15.35;36.74;101138.84;146611;569;46016;-79
2022/03/03 10:26:47;;;;;;;;;23.25;21.75;;;;;15.37;38.28;101131.97;146611;577;46008;-79
2022/03/03 10:29:39;;;;;;;;;24.50;23.50;;;;;15.52;37.27;101131.66;146611;570;46016;-79
2022/03/03 10:32:33;;;;;;;;;22.75;22.25;;;;;15.63;37.30;101130.31;146616;570;46020;-78
2022/03/03 10:35:26;;;;;;;;;25.00;22.25;;;;;15.75;37.02;101130.81;146611;710;47010;-78
2022/03/03 10:38:19;;;;;;;;;23.50;22.00;;;;;15.88;37.36;101122.56;146611;590;46008;-77
2022/03/03 10:41:11;;;;;;;;;21.25;18.50;;;;;15.98;35.54;101121.19;146611;591;46016;-78
2022/03/03 10:44:08;;;;;;;;;24.50;21.25;;;;;15.93;35.78;101112.28;146612;622;47009;-78
2022/03/03 10:47:18;;;;;;;;;18.50;18.00;;;;;15.90;36.87;101109.56;146612;571;46012;-79
2022/03/03 10:50:10;;;;;;;;;21.75;21.75;;;;;15.76;35.62;101109.03;146617;571;46020;-78
2022/03/03 10:53:13;;;;;;;;;23.00;20.75;;;;;14.76;36.25;100963.34;146609;625;47010;-76
2022/03/03 10:56:12;;;;;;;;;23.50;21.75;;;;;15.53;37.26;101107.28;146618;565;46008;-79
2022/03/03 10:59:04;;;;;;;;;26.50;22.25;;;;;15.59;37.03;101115.37;146612;604;46017;-79
2022/03/03 11:01:57;;;;;;;;;28.00;23.00;;;;;15.72;37.43;101104.56;146615;693;46020;-77
2022/03/03 11:04:49;;;;;;;;;24.50;21.50;;;;;15.75;35.04;101095.94;146611;576;46016;-77
2022/03/03 11:07:45;;;;;;;;;21.50;21.25;;;;;15.65;32.80;101086.84;146607;609;47008;-79
2022/03/03 11:10:37;;;;;;;;;25.50;23.00;;;;;15.54;35.22;101088.16;146608;614;47010;-78
2022/03/03 11:13:29;;;;;;;;;26.50;26.00;;;;;15.63;37.03;101084.16;146614;586;46008;-79
2022/03/03 11:16:29;;;;;;;;;20.50;18.75;;;;;15.68;34.87;101073.91;146611;621;46010;-78
2022/03/03 11:19:21;;;;;;;;;20.25;20.25;;;;;15.56;35.51;101073.44;146617;658;46020;-79
2022/03/03 11:22:18;;;;;;;;;20.25;18.00;;;;;15.42;36.19;101067.69;146610;564;46030;-79
2022/03/03 11:25:12;;;;;;;;;18.50;18.50;;;;;15.37;34.77;101072.75;146616;638;46020;-80
2022/03/03 11:28:14;;;;;;;;;21.75;20.75;;;;;15.40;36.89;101078.09;146612;589;46017;-80
2022/03/03 11:31:27;;;;;;;;;21.50;20.50;;;;;15.48;38.38;101067.91;146612;598;46008;-79
2022/03/03 11:34:46;;;;;;;;;26.00;23.25;;;;;15.60;38.25;101065.75;146611;583;46016;-80
2022/03/03 11:37:47;;;;;;;;;29.00;28.00;;;;;15.66;36.36;101079.03;146610;577;46008;-79
2022/03/03 11:40:39;;;;;;;;;19.50;19.00;;;;;15.59;33.99;101055.25;146611;631;47010;-79
2022/03/03 11:43:32;;;;;;;;;22.25;21.00;;;;;15.58;34.50;101056.09;146617;583;46021;-77
2022/03/03 11:46:56;;;;;;;;;21.75;19.75;;;;;15.41;35.04;101072.03;146610;630;46911;-77
2022/03/03 11:50:25;;;;;;;;;19.75;17.50;;;;;15.29;37.09;101061.13;146616;601;46021;-77
2022/03/03 11:53:24;;;;;;;;;14.25;13.25;;;;;15.18;32.80;101060.72;146612;644;46016;-79
2022/03/03 11:56:16;;;;;;;;;23.25;19.00;;;;;15.21;32.95;101055.62;146614;633;46008;-78
2022/03/03 11:59:16;;;;;;;;;22.50;20.00;;;;;15.25;34.01;101061.84;146610;572;46017;-79
2022/03/03 12:02:08;;;;;;;;;20.25;20.00;;;;;15.31;33.85;101074.25;146616;605;47008;-80
2022/03/03 12:05:37;;;;;;;;;26.50;26.50;;;;;15.41;36.65;101068.53;146609;669;47010;-80
2022/03/03 12:08:37;;;;;;;;;23.75;22.25;;;;;15.58;35.87;101064.81;146609;605;46022;-79
2022/03/03 12:11:39;;;;;;;;;20.00;18.00;;;;;15.72;33.36;101062.72;146609;564;46010;-80
2022/03/03 12:14:42;;;;;;;;;19.25;17.50;;;;;15.79;32.08;101059.47;146616;587;46020;-81
2022/03/03 12:18:02;;;;;;;;;18.25;16.00;;;;;15.86;37.36;101060.63;146612;571;46016;-80
2022/03/03 12:20:54;;;;;;;;;20.75;18.25;;;;;15.94;34.47;101054.78;146617;596;46008;-78
2022/03/03 12:23:47;;;;;;;;;19.25;17.25;;;;;15.94;33.09;101057.41;146609;611;46016;-78
2022/03/03 12:27:08;;;;;;;;;16.25;15.50;;;;;15.25;33.13;100939.06;146615;578;46021;-81
2022/03/03 12:30:01;;;;;;;;;24.50;21.25;;;;;15.85;35.08;101058.81;146612;661;46016;-82
2022/03/03 12:33:00;;;;;;;;;22.25;22.00;;;;;16.05;36.33;101056.91;146615;590;46008;-80
2022/03/03 12:35:52;;;;;;;;;18.50;17.50;;;;;16.27;33.94;101061.13;146610;664;46912;-81
2022/03/03 12:38:45;;;;;;;;;25.50;23.75;;;;;16.44;34.52;101057.34;146609;563;46020;-80
2022/03/03 12:41:40;;;;;;;;;18.75;18.75;;;;;16.59;33.41;101049.09;146612;633;46017;-81
2022/03/03 12:44:38;;;;;;;;;19.75;18.50;;;;;16.70;34.59;101049.41;146614;610;47008;-82
2022/03/03 12:47:54;;;;;;;;;23.50;22.25;;;;;16.84;34.49;101049.06;146612;604;46010;-80
2022/03/03 12:50:46;;;;;;;;;33.00;25.75;;;;;17.00;34.62;101044.28;146615;608;46021;-81
2022/03/03 12:53:49;;;;;;;;;17.00;16.25;;;;;17.11;34.36;101047.25;146611;571;46016;-81
2022/03/03 12:56:41;;;;;;;;;23.50;20.25;;;;;17.00;30.58;101047.78;146617;571;46021;-81
2022/03/03 12:59:34;;;;;;;;;22.00;20.50;;;;;16.77;32.19;101044.47;146611;583;45911;-80
2022/03/03 13:02:26;;;;;;;;;18.50;17.00;;;;;16.60;33.75;101043.91;146615;616;46020;-80
2022/03/03 13:05:42;;;;;;;;;18.25;17.50;;;;;16.60;36.47;101043.91;146608;591;47010;-80
2022/03/03 13:08:43;;;;;;;;;17.50;16.50;;;;;16.67;34.82;101029.28;146607;599;47008;-80
2022/03/03 13:11:35;;;;;;;;;19.25;17.00;;;;;16.58;32.67;101029.87;146611;565;46017;-82
2022/03/03 13:14:29;;;;;;;;;20.50;16.50;;;;;16.47;32.18;101020.78;146616;575;46020;-81
2022/03/03 13:17:21;;;;;;;;;22.00;20.25;;;;;16.44;33.69;101030.28;146608;569;46010;-80
2022/03/03 13:20:15;;;;;;;;;23.00;19.00;;;;;16.44;34.49;101030.28;146615;642;46017;-79